Time;durP1;ratioP1;P1;durP2;ratioP2;P2;SDS_P1;SDS_P2;PMS_P1;PMS_P2;Temp;Humidity;BMP_temperature;BMP_pressure;BME280_temperature;BME280_humidity;BME280_pressure;Samples;Min_cycle;Max_cycle;Signal;HPM_P1;HPM_P2
2022/09/22 00:02:19;;;;;;;;;1.80;1.80;;;;;7.91;72.98;100795.56;5033277;28;8940;-60
2022/09/22 00:04:47;;;;;;;;;3.00;3.00;;;;;7.89;72.90;100781.53;5033214;28;8885;-60
2022/09/22 00:07:14;;;;;;;;;3.60;3.60;;;;;7.89;72.85;100780.66;5033556;28;8870;-60
2022/09/22 00:09:42;;;;;;;;;3.00;2.50;;;;;7.88;72.76;100779.84;5033891;28;8885;-60
2022/09/22 00:12:12;;;;;;;;;1.40;1.40;;;;;7.88;73.39;100785.13;5032131;28;8813;-60
2022/09/22 00:14:39;;;;;;;;;1.00;0.00;;;;;7.87;72.77;100778.13;5032781;28;8882;-60
2022/09/22 00:17:07;;;;;;;;;3.00;3.00;;;;;7.86;72.84;100776.41;5033398;28;8905;-60
2022/09/22 00:19:34;;;;;;;;;3.20;3.00;;;;;7.84;73.32;100772.13;5033083;28;8837;-60
2022/09/22 00:22:02;;;;;;;;;3.00;2.60;;;;;7.82;73.09;100774.88;5032813;28;8824;-60
2022/09/22 00:24:30;;;;;;;;;3.80;3.80;;;;;7.81;73.11;100774.94;5033423;28;9510;-60
2022/09/22 00:26:58;;;;;;;;;1.00;1.00;;;;;7.80;72.88;100771.44;5033396;28;8894;-60
2022/09/22 00:29:26;;;;;;;;;3.25;3.00;;;;;7.80;73.31;100770.59;5032439;28;8798;-60
2022/09/22 00:31:53;;;;;;;;;3.40;3.40;;;;;7.78;72.90;100770.69;5033027;28;8817;-60
2022/09/22 00:34:21;;;;;;;;;2.00;2.00;;;;;7.78;73.19;100773.34;5032297;28;8909;-60
2022/09/22 00:36:49;;;;;;;;;3.00;3.00;;;;;7.78;72.96;100772.47;5032108;28;8837;-60
2022/09/22 00:39:17;;;;;;;;;3.00;3.00;;;;;7.77;72.97;100770.75;5031322;28;8843;-61
2022/09/22 00:41:45;;;;;;;;;4.00;4.00;;;;;7.75;72.91;100767.34;5032519;28;9510;-60
2022/09/22 00:44:12;;;;;;;;;1.00;1.00;;;;;7.73;73.14;100774.50;5032643;28;8849;-60
2022/09/22 00:46:40;;;;;;;;;1.00;1.00;;;;;7.70;73.74;100772.88;5032673;28;8813;-60
2022/09/22 00:49:08;;;;;;;;;1.00;1.00;;;;;7.67;73.16;100766.03;5032048;28;8825;-59
2022/09/22 00:51:36;;;;;;;;;1.80;1.80;;;;;7.62;73.25;100762.78;5032708;28;8832;-60
2022/09/22 00:54:03;;;;;;;;;3.00;2.50;;;;;7.59;73.21;100760.31;5032850;28;8821;-60
2022/09/22 00:56:31;;;;;;;;;3.00;2.60;;;;;7.54;73.64;100752.63;5032607;28;8942;-59
2022/09/22 00:58:59;;;;;;;;;1.00;1.00;;;;;7.53;73.32;100756.19;5032263;28;8817;-60
2022/09/22 01:01:27;;;;;;;;;1.00;1.00;;;;;7.51;73.49;100757.22;5033144;28;8833;-60
2022/09/22 01:03:55;;;;;;;;;3.00;3.00;;;;;7.47;73.49;100755.66;5032674;28;8848;-60
2022/09/22 01:06:22;;;;;;;;;3.00;1.00;;;;;7.44;73.54;100755.84;5032730;28;8833;-60
2022/09/22 01:08:50;;;;;;;;;3.00;1.40;;;;;7.40;73.51;100756.94;5034560;28;8820;-60
2022/09/22 01:11:19;;;;;;;;;3.00;1.00;;;;;7.37;73.70;100757.09;5036263;28;8929;-60
2022/09/22 01:13:47;;;;;;;;;2.60;2.60;;;;;7.33;74.34;100753.75;5035949;28;8801;-60
2022/09/22 01:16:15;;;;;;;;;1.00;1.00;;;;;7.30;73.98;100747.78;5036164;28;8817;-61
2022/09/22 01:18:42;;;;;;;;;3.00;3.00;;;;;7.27;73.76;100748.78;5035518;28;8944;-60
2022/09/22 01:21:10;;;;;;;;;2.60;2.60;;;;;7.25;74.24;100744.50;5036258;28;8828;-60
2022/09/22 01:23:38;;;;;;;;;0.00;0.00;;;;;7.24;73.71;100745.44;5036107;28;8844;-60
2022/09/22 01:26:06;;;;;;;;;3.00;3.00;;;;;7.24;73.80;100737.50;5036088;28;8809;-60
2022/09/22 01:28:34;;;;;;;;;1.80;1.80;;;;;7.25;73.41;100733.91;5035275;28;8875;-60
2022/09/22 01:31:02;;;;;;;;;1.00;1.00;;;;;7.25;73.79;100732.13;5035733;28;8893;-60
2022/09/22 01:33:29;;;;;;;;;0.60;0.60;;;;;7.25;74.01;100737.41;5035833;28;8821;-60
2022/09/22 01:35:57;;;;;;;;;2.20;2.20;;;;;7.24;74.00;100734.84;5036101;28;8805;-60
2022/09/22 01:38:25;;;;;;;;;1.00;1.00;;;;;7.22;73.39;100727.00;5035346;28;8964;-60
2022/09/22 01:40:52;;;;;;;;;1.80;1.80;;;;;7.23;73.41;100725.19;5035711;28;8860;-60
2022/09/22 01:43:20;;;;;;;;;1.00;1.00;;;;;7.22;73.87;100724.34;5035811;28;8908;-60
2022/09/22 01:45:48;;;;;;;;;1.00;1.00;;;;;7.21;73.64;100725.25;5035689;28;8844;-60
2022/09/22 01:48:16;;;;;;;;;1.00;1.00;;;;;7.21;73.85;100733.22;5035170;28;8805;-59
2022/09/22 01:50:43;;;;;;;;;1.00;1.00;;;;;7.21;73.87;100722.63;5035329;28;8817;-60
2022/09/22 01:53:11;;;;;;;;;1.00;1.00;;;;;7.21;73.39;100727.91;5035508;28;8913;-60
2022/09/22 01:55:39;;;;;;;;;3.40;3.00;;;;;7.20;73.65;100722.72;5035600;28;8813;-62
2022/09/22 01:58:07;;;;;;;;;1.80;1.80;;;;;7.18;73.77;100719.28;5035149;28;8809;-60
2022/09/22 02:00:34;;;;;;;;;3.00;3.00;;;;;7.17;74.07;100720.22;5035163;28;8829;-60
2022/09/22 02:03:03;;;;;;;;;2.20;2.20;;;;;7.15;74.13;100716.81;5035507;28;8868;-59
2022/09/22 02:05:31;;;;;;;;;3.00;3.00;;;;;7.14;73.54;100715.09;5035476;28;8809;-59
2022/09/22 02:07:58;;;;;;;;;1.40;1.40;;;;;7.12;74.34;100712.53;5034350;28;8909;-59
2022/09/22 02:10:26;;;;;;;;;2.80;2.80;;;;;7.13;73.65;100705.44;5035223;28;8849;-60
2022/09/22 02:12:54;;;;;;;;;2.60;1.00;;;;;7.12;73.99;100704.56;5035332;28;8821;-60
2022/09/22 02:18:28;;;;;;;;;3.00;3.00;;;;;7.11;74.19;100699.34;5019723;28;8875;-60
2022/09/22 02:20:55;;;;;;;;;3.80;3.00;;;;;7.10;74.04;100700.28;5034995;28;8852;-60
2022/09/22 02:23:23;;;;;;;;;3.40;2.20;;;;;7.08;73.84;100696.88;5035045;28;9000;-62
2022/09/22 02:25:51;;;;;;;;;4.40;4.40;;;;;7.09;73.95;100702.09;5034989;28;8913;-60
2022/09/22 02:28:19;;;;;;;;;6.80;5.60;;;;;7.11;74.13;100699.34;5035106;28;8889;-60
2022/09/22 02:30:47;;;;;;;;;7.00;6.40;;;;;7.13;73.69;100700.16;5034428;28;8901;-61
2022/09/22 02:33:34;;;;;;;;;1.00;1.00;;;;;7.13;73.37;100698.34;5034826;28;10026;-60
2022/09/22 02:36:04;;;;;;;;;3.80;3.80;;;;;7.13;73.83;100695.69;5034587;28;8836;-60
2022/09/22 02:38:32;;;;;;;;;3.60;3.20;;;;;7.14;73.66;100699.22;5034828;28;8828;-60
2022/09/22 02:40:59;;;;;;;;;3.80;3.80;;;;;7.13;73.64;100690.41;5034650;28;8921;-60
2022/09/22 02:43:27;;;;;;;;;1.00;0.80;;;;;7.13;73.70;100694.84;5034560;28;8833;-60
2022/09/22 02:45:55;;;;;;;;;6.20;5.20;;;;;7.14;74.08;100696.56;5034214;28;8871;-60
2022/09/22 02:48:23;;;;;;;;;5.20;5.20;;;;;7.12;74.14;100693.16;5034654;28;8952;-60
2022/09/22 02:50:50;;;;;;;;;3.20;3.20;;;;;7.12;73.76;100685.19;5034638;28;8825;-60
2022/09/22 02:53:18;;;;;;;;;3.00;3.00;;;;;7.11;74.16;100686.13;5034595;28;8828;-60
2022/09/22 02:55:45;;;;;;;;;3.40;3.00;;;;;7.08;73.64;100684.50;5034262;28;8845;-60
2022/09/22 02:58:13;;;;;;;;;1.80;1.80;;;;;7.06;74.06;100682.88;5033899;28;8897;-61
2022/09/22 03:00:41;;;;;;;;;5.00;3.80;;;;;7.03;73.83;100685.66;5034330;28;8829;-60
2022/09/22 03:03:09;;;;;;;;;3.60;3.60;;;;;6.98;73.90;100682.44;5033799;28;8837;-60
2022/09/22 03:05:37;;;;;;;;;3.00;3.00;;;;;6.96;73.77;100679.84;5034054;28;8817;-60
2022/09/22 03:08:05;;;;;;;;;3.80;3.00;;;;;6.92;74.34;100669.50;5034162;28;8920;-60
2022/09/22 03:10:33;;;;;;;;;1.80;1.80;;;;;6.91;73.95;100670.44;5034317;28;8828;-60
2022/09/22 03:13:00;;;;;;;;;4.00;4.00;;;;;6.90;73.91;100669.59;5034015;28;8825;-59
2022/09/22 03:15:43;;;;;;;;;3.40;2.80;;;;;6.89;74.12;100672.34;5034267;28;8827;-60
2022/09/22 03:18:10;;;;;;;;;5.60;4.00;;;;;6.90;74.09;100668.75;5034478;28;8951;-60
2022/09/22 03:20:38;;;;;;;;;2.60;2.60;;;;;6.90;74.21;100674.03;5033821;28;8821;-60
2022/09/22 03:23:06;;;;;;;;;4.80;4.80;;;;;6.90;73.92;100669.59;5033856;28;8914;-59
2022/09/22 03:25:33;;;;;;;;;4.00;3.40;;;;;6.91;74.04;100670.44;5034025;28;8817;-60
2022/09/22 03:28:01;;;;;;;;;6.00;6.00;;;;;6.91;74.14;100662.50;5033964;28;8832;-60
2022/09/22 03:30:29;;;;;;;;;6.00;6.00;;;;;6.91;74.04;100670.44;5033200;28;8821;-60
2022/09/22 03:32:56;;;;;;;;;6.00;5.20;;;;;6.91;73.90;100670.44;5033285;28;8817;-60
2022/09/22 03:35:24;;;;;;;;;3.00;3.00;;;;;6.92;74.16;100666.88;5014097;28;9547;-59
2022/09/22 03:37:52;;;;;;;;;7.40;6.80;;;;;6.91;74.01;100670.44;5014059;28;8819;-60
2022/09/22 03:40:20;;;;;;;;;3.60;3.60;;;;;6.91;73.90;100665.16;5013646;28;8839;-60
2022/09/22 03:42:48;;;;;;;;;4.00;4.00;;;;;6.89;73.85;100662.59;5013842;28;8823;-61
2022/09/22 03:45:16;;;;;;;;;4.00;4.00;;;;;6.89;73.90;100667.03;5032484;28;8833;-60
2022/09/22 03:47:45;;;;;;;;;4.00;3.00;;;;;6.87;73.90;100661.81;5032918;28;9516;-60
2022/09/22 03:50:13;;;;;;;;;4.60;4.40;;;;;6.86;74.31;100656.59;5033501;28;8809;-60
2022/09/22 03:52:42;;;;;;;;;4.80;4.00;;;;;6.86;74.23;100664.53;5032913;28;8909;-60
2022/09/22 03:55:10;;;;;;;;;5.20;3.80;;;;;6.86;73.76;100661.88;5032515;28;9710;-60
2022/09/22 03:57:37;;;;;;;;;7.00;6.00;;;;;6.85;74.25;100662.81;5033313;28;8836;-60
2022/09/22 04:00:06;;;;;;;;;6.00;5.60;;;;;6.83;74.16;100656.78;5033462;28;8913;-60
2022/09/22 04:02:33;;;;;;;;;4.40;3.60;;;;;6.79;74.34;100658.72;5032515;28;8833;-60
2022/09/22 04:05:01;;;;;;;;;6.00;6.00;;;;;6.76;74.22;100650.09;5032344;28;8856;-60
2022/09/22 04:07:29;;;;;;;;;7.00;5.20;;;;;6.74;74.00;100657.25;5033284;28;8878;-60
2022/09/22 04:09:56;;;;;;;;;4.00;4.00;;;;;6.69;74.32;100654.81;5032984;28;8825;-60
2022/09/22 04:12:24;;;;;;;;;4.00;4.00;;;;;6.65;74.27;100652.44;5033181;28;9609;-61
2022/09/22 04:14:52;;;;;;;;;3.80;3.60;;;;;6.61;74.55;100645.59;5032910;28;8816;-61
2022/09/22 04:17:20;;;;;;;;;4.00;4.00;;;;;6.57;74.85;100647.56;5033103;28;8824;-61
2022/09/22 04:19:48;;;;;;;;;1.80;1.80;;;;;6.55;74.47;100645.91;5033422;28;8845;-60
2022/09/22 04:22:16;;;;;;;;;3.40;3.40;;;;;6.52;74.61;100641.63;5033064;28;8889;-61
2022/09/22 04:24:43;;;;;;;;;4.40;4.00;;;;;6.49;74.43;100636.50;5032552;28;8821;-60
2022/09/22 04:27:11;;;;;;;;;3.40;3.40;;;;;6.48;74.69;100641.88;5033281;28;8845;-61
2022/09/22 04:29:47;;;;;;;;;4.00;4.00;;;;;6.46;74.49;100643.75;5033043;28;8833;-61
2022/09/22 04:32:15;;;;;;;;;4.00;4.00;;;;;6.45;75.08;100642.03;5032807;28;8805;-60
2022/09/22 04:34:42;;;;;;;;;3.80;3.00;;;;;6.44;75.16;100648.28;5032539;28;8837;-61
2022/09/22 04:37:10;;;;;;;;;6.60;5.20;;;;;6.44;74.32;100649.13;5032420;28;8913;-60
2022/09/22 04:39:38;;;;;;;;;3.80;3.80;;;;;6.46;75.11;100641.09;5032552;28;8928;-60
2022/09/22 04:42:07;;;;;;;;;6.00;4.00;;;;;6.45;74.76;100644.69;5032671;28;8822;-60
2022/09/22 04:44:35;;;;;;;;;5.00;5.00;;;;;6.45;74.72;100642.03;5035982;28;8809;-60
2022/09/22 04:47:03;;;;;;;;;3.60;3.00;;;;;6.44;75.08;100642.97;5035912;28;8836;-60
2022/09/22 04:49:31;;;;;;;;;4.00;3.00;;;;;6.45;74.86;100639.41;5035714;28;8825;-60
2022/09/22 04:51:58;;;;;;;;;4.00;4.00;;;;;6.45;74.82;100648.19;5035745;28;8809;-62
2022/09/22 04:54:27;;;;;;;;;5.80;4.40;;;;;6.45;75.07;100647.34;5036336;28;9482;-60
2022/09/22 04:56:54;;;;;;;;;5.40;5.40;;;;;6.45;74.69;100639.41;5035481;28;8893;-62
2022/09/22 04:59:22;;;;;;;;;4.00;4.00;;;;;6.43;74.88;100636.81;5035527;28;8833;-61
2022/09/22 05:01:50;;;;;;;;;5.20;4.00;;;;;6.44;75.16;100643.81;5034923;28;8825;-60
2022/09/22 05:04:18;;;;;;;;;4.40;3.60;;;;;6.45;74.68;100639.41;5049437;28;8815;-59
2022/09/22 05:06:47;;;;;;;;;4.60;4.40;;;;;6.44;74.36;100641.19;5055222;28;8845;-59
2022/09/22 05:09:15;;;;;;;;;6.40;6.00;;;;;6.45;74.60;100637.59;5053771;28;8853;-61
2022/09/22 05:11:43;;;;;;;;;6.00;5.20;;;;;6.45;74.66;100640.25;5053305;28;8850;-61
2022/09/22 05:14:11;;;;;;;;;4.40;4.40;;;;;6.46;74.63;100638.47;5053272;28;8826;-60
2022/09/22 05:16:40;;;;;;;;;4.80;4.00;;;;;6.44;74.56;100632.41;5054138;28;8838;-60
2022/09/22 05:19:09;;;;;;;;;6.00;6.00;;;;;6.43;74.73;100638.59;5053548;28;8882;-62
2022/09/22 05:21:36;;;;;;;;;6.00;6.00;;;;;6.40;75.23;100638.78;5053550;28;8846;-60
2022/09/22 05:24:04;;;;;;;;;4.00;4.00;;;;;6.38;74.94;100644.13;5053999;28;8898;-60
2022/09/22 05:26:33;;;;;;;;;3.60;3.20;;;;;6.36;75.09;100645.16;5054770;28;8846;-60
2022/09/22 05:29:00;;;;;;;;;5.60;5.60;;;;;6.33;74.69;100645.31;5053371;28;8826;-60
2022/09/22 05:31:28;;;;;;;;;2.20;2.20;;;;;6.31;74.68;100652.47;5053491;28;8826;-60
2022/09/22 05:33:55;;;;;;;;;3.00;3.00;;;;;6.30;74.71;100650.75;5054375;28;8826;-60
2022/09/22 05:36:23;;;;;;;;;3.00;3.00;;;;;6.30;74.74;100645.47;5052430;28;9516;-60
2022/09/22 05:38:51;;;;;;;;;3.60;3.60;;;;;6.32;75.12;100651.53;5052095;28;8834;-60
2022/09/22 05:41:19;;;;;;;;;6.00;6.00;;;;;6.35;74.98;100648.72;5052289;28;8850;-61
2022/09/22 05:43:47;;;;;;;;;3.20;3.20;;;;;6.37;74.34;100642.44;5052426;28;9623;-62
2022/09/22 05:46:14;;;;;;;;;5.60;5.60;;;;;6.40;74.60;100654.63;5051088;28;8834;-62
2022/09/22 05:48:42;;;;;;;;;2.60;2.60;;;;;6.45;74.50;100655.28;5052036;28;9545;-62
2022/09/22 05:51:10;;;;;;;;;3.20;3.00;;;;;6.51;74.56;100653.16;5051470;28;8894;-59
2022/09/22 05:53:37;;;;;;;;;5.20;4.00;;;;;6.59;74.56;100652.78;5050249;28;8857;-62
2022/09/22 05:56:05;;;;;;;;;3.00;3.00;;;;;6.66;73.91;100656.81;5050679;28;9590;-62
2022/09/22 05:58:33;;;;;;;;;3.00;3.00;;;;;6.70;74.40;100651.28;5050805;28;8835;-62
2022/09/22 06:01:01;;;;;;;;;4.00;4.00;;;;;6.77;74.23;100657.09;5049831;28;8822;-62
2022/09/22 06:03:29;;;;;;;;;3.40;3.00;;;;;6.84;73.93;100661.13;5049635;28;9248;-60
2022/09/22 06:05:56;;;;;;;;;3.60;3.00;;;;;6.90;73.55;100652.88;5048660;28;8838;-61
2022/09/22 06:08:24;;;;;;;;;3.80;3.40;;;;;6.96;73.64;100663.97;5049942;28;8830;-62
2022/09/22 06:10:51;;;;;;;;;3.20;1.40;;;;;7.02;73.25;100658.34;5048371;28;8838;-60
2022/09/22 06:13:19;;;;;;;;;3.00;3.00;;;;;7.09;73.55;100661.50;5049394;28;8910;-60
2022/09/22 06:15:47;;;;;;;;;3.00;3.00;;;;;7.14;73.30;100662.13;5047308;28;8894;-62
2022/09/22 06:18:16;;;;;;;;;4.80;3.20;;;;;7.20;72.88;100662.66;5048074;28;8834;-62
2022/09/22 06:20:51;;;;;;;;;3.40;3.40;;;;;7.29;72.52;100666.59;5047886;28;8830;-62
2022/09/22 06:23:19;;;;;;;;;3.80;3.40;;;;;7.36;72.70;100657.38;5048676;28;8846;-62
2022/09/22 06:25:46;;;;;;;;;6.60;6.60;;;;;7.43;72.91;100658.75;5049273;28;8838;-62
2022/09/22 06:28:14;;;;;;;;;4.80;4.80;;;;;7.50;72.62;100658.31;5050066;28;9570;-62
2022/09/22 06:30:42;;;;;;;;;4.80;3.80;;;;;7.54;72.75;100657.22;5051257;28;8825;-60
2022/09/22 06:33:09;;;;;;;;;3.00;3.00;;;;;7.60;72.64;100661.31;5051074;28;8818;-62
2022/09/22 06:35:37;;;;;;;;;3.00;3.00;;;;;7.66;72.42;100655.66;5004639;28;1338098;-61
2022/09/22 06:38:05;;;;;;;;;3.40;3.00;;;;;7.70;72.00;100661.53;5051385;28;11534;-60
2022/09/22 06:40:34;;;;;;;;;4.40;4.00;;;;;7.76;72.41;100658.56;5051216;28;8834;-62
2022/09/22 06:43:07;;;;;;;;;6.20;4.80;;;;;7.81;71.90;100656.50;5051342;28;8980;-62
2022/09/22 06:45:35;;;;;;;;;7.40;7.00;;;;;7.90;72.29;100650.66;5051250;28;8822;-62
2022/09/22 06:48:03;;;;;;;;;4.60;3.80;;;;;7.99;72.33;100649.31;5051324;28;8927;-62
2022/09/22 06:50:37;;;;;;;;;6.00;6.00;;;;;8.08;71.72;100654.94;5052126;28;9572;-62
2022/09/22 06:53:05;;;;;;;;;6.20;6.20;;;;;8.15;71.86;100653.59;5052312;28;8818;-62
2022/09/22 06:55:33;;;;;;;;;4.00;3.00;;;;;8.23;71.58;100654.06;5051984;28;8846;-61
2022/09/22 06:58:01;;;;;;;;;4.80;3.80;;;;;8.32;71.78;100656.19;5052638;28;8838;-62
2022/09/22 07:00:31;;;;;;;;;7.00;7.00;;;;;8.42;71.45;100651.16;5050615;28;8826;-62
2022/09/22 07:02:59;;;;;;;;;4.50;4.00;;;;;8.51;71.09;100658.59;5050311;28;8968;-62
2022/09/22 07:05:27;;;;;;;;;6.80;6.80;;;;;8.60;71.22;100645.59;5049086;28;8902;-62
2022/09/22 07:07:55;;;;;;;;;7.00;6.60;;;;;8.71;71.13;100656.44;5050063;28;8922;-62
2022/09/22 07:10:22;;;;;;;;;6.75;6.50;;;;;8.80;70.97;100649.72;5050173;28;9520;-60
2022/09/22 07:12:50;;;;;;;;;5.50;5.50;;;;;8.90;71.22;100657.00;5050498;28;8834;-60
2022/09/22 07:15:18;;;;;;;;;4.00;3.75;;;;;9.03;70.77;100651.81;5051245;28;8923;-62
2022/09/22 07:17:46;;;;;;;;;3.00;3.00;;;;;9.16;70.42;100648.31;5051353;28;8853;-62
2022/09/22 07:20:14;;;;;;;;;9.00;7.00;;;;;9.32;70.33;100642.84;5051216;28;9557;-60
2022/09/22 07:22:42;;;;;;;;;6.75;5.50;;;;;9.47;69.86;100644.53;5051527;28;8888;-63
2022/09/22 07:25:10;;;;;;;;;6.25;6.00;;;;;9.61;70.21;100647.16;5051236;28;9503;-62
2022/09/22 07:27:37;;;;;;;;;6.25;6.00;;;;;9.76;69.75;100648.84;5050660;28;8823;-63
2022/09/22 07:30:05;;;;;;;;;6.00;5.00;;;;;9.92;69.05;100639.78;5050574;28;9488;-61
2022/09/22 07:32:34;;;;;;;;;5.50;4.00;;;;;10.08;68.81;100640.50;5050995;28;8826;-60
2022/09/22 07:35:01;;;;;;;;;5.50;5.50;;;;;10.25;68.40;100642.88;5050987;28;8842;-59
2022/09/22 07:37:32;;;;;;;;;8.00;6.75;;;;;10.40;68.74;100641.00;5049270;28;8838;-62
2022/09/22 07:40:01;;;;;;;;;4.50;4.50;;;;;10.58;67.94;100635.28;5048562;28;9719;-62
2022/09/22 07:42:29;;;;;;;;;6.00;6.00;;;;;10.77;67.83;100634.88;5048472;28;8933;-61
2022/09/22 07:45:15;;;;;;;;;6.00;6.00;;;;;10.96;67.84;100635.28;5048491;28;8834;-61
2022/09/22 07:50:28;;;;;;;;;3.25;3.25;;;;;11.38;66.76;100627.75;5048882;28;8838;-60
2022/09/22 07:52:56;;;;;;;;;7.00;6.50;;;;;11.54;66.62;100632.84;5050386;28;8811;-62
2022/09/22 07:55:24;;;;;;;;;6.00;5.00;;;;;11.70;66.43;100631.66;5049486;28;8846;-61
2022/09/22 07:57:52;;;;;;;;;7.00;6.50;;;;;11.85;66.23;100633.19;5050206;28;8838;-60
2022/09/22 08:00:19;;;;;;;;;4.00;4.00;;;;;12.00;66.38;100632.88;5050856;28;9519;-62
2022/09/22 08:02:47;;;;;;;;;6.00;5.50;;;;;12.14;66.41;100629.19;5050963;28;8915;-60
2022/09/22 08:05:15;;;;;;;;;6.00;6.00;;;;;12.26;65.53;100628.25;5049563;28;8842;-61
2022/09/22 08:07:43;;;;;;;;;5.50;4.50;;;;;12.42;65.15;100624.31;5048524;28;8837;-60
2022/09/22 08:10:11;;;;;;;;;8.00;7.00;;;;;12.57;64.99;100627.63;5049019;28;8838;-62
2022/09/22 08:12:38;;;;;;;;;9.00;6.75;;;;;12.72;65.37;100630.00;5049500;28;8964;-59
2022/09/22 08:15:06;;;;;;;;;8.00;7.50;;;;;12.87;64.60;100619.91;5048314;28;8905;-60
2022/09/22 08:17:34;;;;;;;;;4.00;4.00;;;;;13.00;64.49;100626.03;5049068;28;8814;-60
2022/09/22 08:20:03;;;;;;;;;4.75;4.75;;;;;13.12;64.87;100620.56;5049562;28;8838;-61
2022/09/22 08:22:32;;;;;;;;;4.00;4.00;;;;;13.25;64.51;100625.78;5049210;28;8837;-60
2022/09/22 08:24:59;;;;;;;;;3.50;3.50;;;;;13.39;63.89;100615.72;5049550;28;9479;-62
2022/09/22 08:27:27;;;;;;;;;4.00;3.75;;;;;13.51;63.81;100616.53;5048272;28;8826;-61
2022/09/22 08:29:55;;;;;;;;;7.00;6.25;;;;;13.64;63.69;100623.44;5048610;28;9697;-62
2022/09/22 08:32:25;;;;;;;;;6.00;6.00;;;;;13.82;64.06;100613.06;5048119;28;8897;-60
2022/09/22 08:34:56;;;;;;;;;6.00;5.50;;;;;13.98;63.88;100611.66;5048297;28;8907;-60
2022/09/22 08:37:26;;;;;;;;;9.00;6.75;;;;;14.18;62.76;100605.53;5047610;28;8830;-60
2022/09/22 08:39:54;;;;;;;;;4.00;4.00;;;;;14.39;62.81;100609.09;5046960;28;8858;-60
2022/09/22 08:42:22;;;;;;;;;5.50;5.50;;;;;14.60;62.45;100609.94;5048285;28;8826;-61
2022/09/22 08:44:50;;;;;;;;;7.00;7.00;;;;;14.79;62.08;100606.53;5047201;28;8842;-62
2022/09/22 08:51:50;;;;;;;;;4.00;4.00;;;;;14.95;62.36;100598.84;5047007;28;8834;-62
2022/09/22 08:52:52;;;;;;;;;7.50;6.50;;;;;15.20;61.77;100603.75;5046410;28;8858;-61
2022/09/22 08:55:20;;;;;;;;;6.50;5.50;;;;;15.32;61.71;100608.09;5046620;28;9194;-60
2022/09/22 08:57:48;;;;;;;;;5.00;4.00;;;;;15.43;61.71;100611.53;5047846;28;8857;-60
2022/09/22 09:00:16;;;;;;;;;4.50;4.50;;;;;15.54;61.41;100610.56;5047866;28;8818;-60
2022/09/22 09:02:43;;;;;;;;;6.50;6.50;;;;;15.64;61.57;100614.13;5047145;28;8845;-60
2022/09/22 09:05:11;;;;;;;;;6.00;5.50;;;;;15.74;61.23;100610.47;5048958;28;8846;-62
2022/09/22 09:07:42;;;;;;;;;4.50;4.00;;;;;15.87;61.07;100602.16;5048606;28;9557;-60
2022/09/22 09:10:09;;;;;;;;;5.50;4.00;;;;;16.00;61.18;100606.25;5047954;28;8932;-60
2022/09/22 09:12:37;;;;;;;;;5.50;5.50;;;;;16.12;61.27;100602.47;5049121;28;9647;-63
2022/09/22 09:15:04;;;;;;;;;7.00;6.00;;;;;16.25;60.72;100609.25;5049164;28;8914;-59
2022/09/22 09:17:33;;;;;;;;;4.00;4.00;;;;;16.36;60.91;100598.34;5049455;28;8834;-61
2022/09/22 09:20:01;;;;;;;;;2.60;1.80;;;;;16.50;60.42;100608.69;5048978;28;8842;-60
2022/09/22 09:22:30;;;;;;;;;6.60;4.00;;;;;16.67;60.29;100607.09;5048479;28;8830;-62
2022/09/22 09:24:58;;;;;;;;;4.00;3.40;;;;;16.79;60.26;100596.03;5048780;28;8830;-60
2022/09/22 09:27:46;;;;;;;;;3.60;3.60;;;;;16.92;60.10;100603.78;5048819;28;8927;-60
2022/09/22 09:30:16;;;;;;;;;3.00;3.00;;;;;17.03;60.10;100598.25;5051851;28;8826;-60
2022/09/22 09:32:44;;;;;;;;;3.00;3.00;;;;;17.11;60.12;100601.91;5050879;28;8850;-61
2022/09/22 09:35:12;;;;;;;;;1.80;1.80;;;;;17.22;59.51;100599.00;5049850;28;9527;-60
2022/09/22 09:37:40;;;;;;;;;1.00;1.00;;;;;17.30;59.54;100596.44;5051092;28;9502;-62
2022/09/22 09:40:08;;;;;;;;;5.20;4.00;;;;;17.39;59.49;100587.47;5050356;28;8842;-61
2022/09/22 09:42:36;;;;;;;;;4.40;4.00;;;;;17.46;59.42;100588.59;5047937;28;8853;-59
2022/09/22 09:45:04;;;;;;;;;3.00;3.00;;;;;17.55;59.53;100590.38;5048618;28;8849;-60
2022/09/22 09:47:32;;;;;;;;;1.40;1.40;;;;;17.63;58.73;100587.75;5049187;28;8845;-60
2022/09/22 09:50:00;;;;;;;;;1.80;1.80;;;;;17.88;58.80;100581.66;5050274;28;8845;-61
2022/09/22 09:52:28;;;;;;;;;3.00;1.80;;;;;18.29;57.57;100586.44;5049437;28;8834;-62
2022/09/22 09:54:55;;;;;;;;;1.00;1.00;;;;;18.88;56.46;100583.06;5049983;28;8842;-62
2022/09/22 09:57:23;;;;;;;;;1.00;1.00;;;;;19.78;54.30;100571.50;5051610;28;8827;-61
2022/09/22 10:02:39;;;;;;;;;1.00;1.00;;;;;20.67;53.69;100576.00;5052079;28;8862;-61
2022/09/22 10:05:08;;;;;;;;;0.80;0.80;;;;;21.60;52.24;100567.94;5051967;28;8829;-61
2022/09/22 10:07:36;;;;;;;;;0.00;0.00;;;;;22.69;50.48;100562.13;5052109;28;8953;-61
2022/09/22 10:10:03;;;;;;;;;0.00;0.00;;;;;23.11;49.37;100556.94;5050577;28;8854;-61
2022/09/22 10:12:32;;;;;;;;;0.00;0.00;;;;;22.47;50.50;100560.31;5050130;28;8838;-60
2022/09/22 10:15:00;;;;;;;;;1.00;1.00;;;;;21.78;52.92;100557.72;5050350;28;8900;-61
2022/09/22 10:17:28;;;;;;;;;0.80;0.80;;;;;21.94;52.20;100552.19;5050287;28;8880;-61
2022/09/22 10:19:55;;;;;;;;;2.40;1.00;;;;;21.88;52.85;100550.19;5050090;28;8830;-60
2022/09/22 10:22:24;;;;;;;;;0.20;0.00;;;;;21.99;52.39;100536.22;5050164;28;8842;-61
2022/09/22 10:24:52;;;;;;;;;0.80;0.80;;;;;23.13;50.72;100533.16;5050257;28;8814;-62
2022/09/22 10:27:19;;;;;;;;;0.00;0.00;;;;;24.30;48.68;100530.00;5050732;28;8877;-61
2022/09/22 10:29:48;;;;;;;;;1.00;1.00;;;;;25.16;46.97;100526.88;5051730;28;8834;-61
2022/09/22 10:32:15;;;;;;;;;1.00;1.00;;;;;25.88;45.62;100520.75;5050748;28;8834;-61
2022/09/22 10:34:44;;;;;;;;;0.20;0.20;;;;;26.12;46.32;100515.53;5051334;28;8830;-61
2022/09/22 10:37:17;;;;;;;;;0.40;0.40;;;;;25.92;46.93;100519.28;5049561;28;9198;-61
2022/09/22 10:39:45;;;;;;;;;0.40;0.00;;;;;25.47;47.06;100513.66;5049616;28;8822;-62
2022/09/22 10:42:13;;;;;;;;;1.20;1.20;;;;;24.83;48.22;100523.97;5049827;28;8846;-61
2022/09/22 10:44:41;;;;;;;;;0.40;0.40;;;;;23.91;50.07;100517.84;5050501;28;8868;-62
2022/09/22 10:47:15;;;;;;;;;0.20;0.20;;;;;23.45;50.66;100525.44;5050471;28;8814;-61
2022/09/22 10:49:42;;;;;;;;;1.60;1.60;;;;;23.24;51.17;100524.53;5050599;28;8830;-60
2022/09/22 10:52:10;;;;;;;;;0.40;0.40;;;;;23.16;51.13;100516.47;5050794;28;8850;-61
2022/09/22 10:54:40;;;;;;;;;0.00;0.00;;;;;22.77;51.65;100521.31;5050318;28;8849;-61
2022/09/22 10:57:09;;;;;;;;;1.00;1.00;;;;;22.14;52.77;100524.41;5049034;28;8968;-62
2022/09/22 10:59:37;;;;;;;;;0.00;0.00;;;;;21.81;52.93;100528.38;5050204;28;8826;-60
2022/09/22 11:02:05;;;;;;;;;1.00;1.00;;;;;21.76;52.45;100529.91;5049797;28;8841;-61
2022/09/22 11:04:32;;;;;;;;;1.00;0.00;;;;;21.73;52.25;100519.44;5050497;28;8841;-60
2022/09/22 11:12:32;;;;;;;;;0.00;0.00;;;;;22.92;49.97;100514.84;5049064;28;8838;-61
2022/09/22 11:14:59;;;;;;;;;0.20;0.20;;;;;23.49;48.16;100512.31;5049033;28;8834;-61
2022/09/22 11:17:30;;;;;;;;;1.00;1.00;;;;;23.89;47.88;100511.78;5048157;28;8830;-63
2022/09/22 11:19:57;;;;;;;;;0.80;0.80;;;;;24.15;47.16;100512.03;5048841;28;8842;-61
2022/09/22 11:22:25;;;;;;;;;1.00;1.00;;;;;24.51;46.40;100505.41;5048201;28;9476;-61
2022/09/22 11:24:53;;;;;;;;;0.40;0.40;;;;;25.01;45.72;100504.34;5047124;28;8834;-60
2022/09/22 11:27:21;;;;;;;;;1.00;0.00;;;;;25.33;44.29;100501.00;5046844;28;8857;-60
2022/09/22 11:29:49;;;;;;;;;0.20;0.00;;;;;25.50;44.31;100505.91;5048862;28;8947;-60
2022/09/22 11:32:16;;;;;;;;;0.80;0.80;;;;;26.27;43.03;100502.50;5048661;28;8835;-61
2022/09/22 11:34:44;;;;;;;;;1.20;1.20;;;;;27.13;41.17;100494.06;5048445;28;8814;-60
2022/09/22 11:37:25;;;;;;;;;1.00;1.00;;;;;26.64;42.77;100499.19;5049678;28;9632;-61
2022/09/22 11:39:53;;;;;;;;;1.00;1.00;;;;;26.80;42.45;100489.72;5048533;28;8827;-60
2022/09/22 11:42:23;;;;;;;;;1.20;1.00;;;;;27.73;40.79;100490.88;5048578;28;8830;-61
2022/09/22 11:44:51;;;;;;;;;2.00;1.80;;;;;27.45;41.67;100487.66;5047825;28;8896;-60
2022/09/22 11:47:19;;;;;;;;;2.00;2.00;;;;;26.43;43.66;100496.63;5046932;28;9550;-61
2022/09/22 11:49:47;;;;;;;;;0.40;0.00;;;;;25.33;45.12;100487.34;5046322;28;8879;-60
2022/09/22 11:52:15;;;;;;;;;0.40;0.40;;;;;24.37;47.20;100492.75;5046480;28;9598;-61
2022/09/22 11:54:46;;;;;;;;;1.00;1.00;;;;;23.64;48.58;100491.34;5046883;28;8853;-59
2022/09/22 11:57:14;;;;;;;;;1.00;1.00;;;;;23.08;49.66;100483.94;5046536;28;8845;-60
2022/09/22 11:59:42;;;;;;;;;1.00;1.00;;;;;23.59;48.58;100486.50;5047831;28;8841;-61
2022/09/22 12:02:10;;;;;;;;;1.00;1.00;;;;;25.33;45.99;100462.81;5047389;28;8838;-60